Airport Name : Bandaranaike Intl Colombo

Other Name : Columbo

ICAO : VCBI

IATA : CMB

FAA :

Latitude : 7.180756

Longitude : 79.884117

Country : Sri Lanka

Local Date and Time : 29 Oct 2020 18:20

 

TAF (Terminal Aerodrome Forecast)

TAF VCBI 291100Z 2912/3018 VRB05KT 8000 SCT018 TX31/3008Z TN25/3000Z TEMPO 2918/3002 6000

 

METAR (METeorological Aerodrome Report)

To Charter a Jet Click here.